L'Anse-Saint-Jean, Canada
Current Conditions -  °F | °C
As of 3:00 PM on Monday 26 Jan 2015 (Local Time) from CYBG Reporting Station
Broken Clouds Broken Clouds  
Wind Chill: -14°   Ceiling: 20000
Heat Index: -2°   Visibility: 25mi
Dew Point: -9°   Wind: 6mph
Humidity: 71%   Direction: 340°NNW
Pressure: 30.26"   Gusts: NA
Location:  48.23°N, 70.18°W
Report Text: CYBG 262000Z 34005KT 25SM FEW120 BKN200 M19/M23 A3026 RMK AC2CS2 HALO SLP267
Loading
Personal Weather Stations






























Interactive Weather Map New forecast layout! Learn more

10-Day Weather Forecast

Advertisements
Track Severe Weather on mobile